Terminal Aerodrome Forecast
Issued by NWS Wilmington, OH

Current Version | Previous Version | Text Only | Print | Product List | Glossary On
Versions: 1 2 3 4 5 6 7 8 9 10 11 12 13 14 15 16 17 18 19 20 21 22 23 24 25 26 27 28 29 30
000 FTUS41 KILN 242300 TAFCVG TAF KCVG 242323Z 2500/2606 24012G22KT P6SM BKN045 FM250600 24010KT P6SM SCT045 FM251500 25010KT P6SM SCT030 FM252300 29005KT P6SM SCT250=

USA.gov is the U.S. government's official web portal to all federal, state and local government web resources and services.